createdAt,value
2023-03-02T00:01:30.663Z,68.31
2023-03-02T00:03:59.363Z,68.46
2023-03-02T00:06:28.087Z,68.74
2023-03-02T00:08:54.593Z,68.18
2023-03-02T00:11:20.969Z,67.80
2023-03-02T00:13:47.746Z,68.15
2023-03-02T00:16:14.119Z,68.82
2023-03-02T00:18:40.464Z,68.48
2023-03-02T00:21:06.764Z,68.32
2023-03-02T00:23:33.068Z,68.02
2023-03-02T00:26:00.490Z,67.56
2023-03-02T00:28:26.803Z,67.91
2023-03-02T00:30:53.104Z,68.00
2023-03-02T00:33:19.442Z,67.99
2023-03-02T00:35:45.841Z,68.56
2023-03-02T00:38:12.243Z,68.13
2023-03-02T00:40:44.572Z,68.54
2023-03-02T00:43:11.006Z,68.84
2023-03-02T00:45:37.323Z,69.15
2023-03-02T00:48:03.768Z,69.09
2023-03-02T00:50:30.163Z,69.11
2023-03-02T00:52:56.480Z,69.42
2023-03-02T00:55:22.898Z,69.55
2023-03-02T00:57:53.473Z,69.66
2023-03-02T01:00:19.987Z,69.83
2023-03-02T01:02:46.416Z,69.68
2023-03-02T01:05:12.858Z,70.05
2023-03-02T01:07:39.190Z,70.11
2023-03-02T01:10:06.202Z,70.09
2023-03-02T01:12:32.934Z,70.13
2023-03-02T01:14:59.513Z,69.96
2023-03-02T01:17:25.873Z,69.78
2023-03-02T01:19:52.569Z,70.02
2023-03-02T01:22:19.509Z,70.08
2023-03-02T01:24:45.967Z,70.39
2023-03-02T01:27:12.283Z,70.85
2023-03-02T01:29:38.643Z,71.02
2023-03-02T01:32:05.257Z,71.43
2023-03-02T01:34:31.627Z,71.96
2023-03-02T01:36:58.115Z,72.25
2023-03-02T01:39:24.410Z,72.07
2023-03-02T01:41:52.539Z,71.37
2023-03-02T01:44:42.973Z,72.04
2023-03-02T01:47:13.057Z,72.72
2023-03-02T01:49:44.554Z,72.35
2023-03-02T01:52:12.173Z,72.14
2023-03-02T01:54:41.325Z,72.22
2023-03-02T01:57:08.671Z,72.67
2023-03-02T01:59:38.069Z,72.65
2023-03-02T02:02:08.133Z,72.85
2023-03-02T02:04:38.650Z,74.07
2023-03-02T02:07:07.061Z,75.14
2023-03-02T02:09:44.298Z,76.06
2023-03-02T02:12:16.212Z,76.94
2023-03-02T02:14:43.702Z,75.60
2023-03-02T02:17:12.127Z,74.83
2023-03-02T02:20:01.163Z,74.82
2023-03-02T02:22:46.671Z,74.79
2023-03-02T02:25:30.947Z,74.72
2023-03-02T02:27:57.505Z,74.63
2023-03-02T02:30:25.027Z,74.68
2023-03-02T02:32:53.675Z,74.61
2023-03-02T02:35:24.959Z,74.98
2023-03-02T02:37:55.372Z,75.23
2023-03-02T02:40:39.874Z,75.02
2023-03-02T02:43:07.507Z,75.13
2023-03-02T02:45:33.888Z,75.08
2023-03-02T02:48:00.325Z,75.40
2023-03-02T02:50:33.409Z,75.65
2023-03-02T02:53:23.671Z,75.51
2023-03-02T02:55:54.628Z,75.01
2023-03-02T02:58:30.926Z,75.63
2023-03-02T03:00:57.531Z,76.17
2023-03-02T03:03:29.546Z,76.58
2023-03-02T03:05:57.857Z,76.63
2023-03-02T03:08:46.084Z,76.18
2023-03-02T03:11:19.477Z,75.37
2023-03-02T03:13:46.818Z,74.91
2023-03-02T03:16:16.067Z,75.01
2023-03-02T03:18:44.728Z,75.49
2023-03-02T03:21:11.041Z,74.92
2023-03-02T03:23:37.357Z,74.99
2023-03-02T03:26:07.180Z,75.22
2023-03-02T03:28:33.833Z,75.24
2023-03-02T03:31:00.311Z,74.54
2023-03-02T03:33:26.876Z,74.97
2023-03-02T03:35:53.276Z,75.16
2023-03-02T03:38:20.084Z,76.09
2023-03-02T03:40:46.497Z,76.10
2023-03-02T03:43:12.891Z,76.47
2023-03-02T03:45:39.641Z,76.50
2023-03-02T03:48:06.285Z,75.43
2023-03-02T03:50:32.593Z,74.92
2023-03-02T03:52:58.996Z,74.34
2023-03-02T03:55:25.366Z,74.59
2023-03-02T03:57:51.675Z,74.56
2023-03-02T04:00:18.593Z,74.45
2023-03-02T04:02:45.011Z,74.29
2023-03-02T04:05:11.748Z,74.22
2023-03-02T04:07:39.469Z,74.33
2023-03-02T04:10:07.436Z,74.50
2023-03-02T04:12:36.322Z,74.25
2023-03-02T04:15:04.959Z,73.87
2023-03-02T04:17:31.298Z,74.64
2023-03-02T04:19:57.646Z,74.03
2023-03-02T04:22:24.190Z,73.91
2023-03-02T04:24:50.580Z,74.02
2023-03-02T04:27:17.703Z,73.87
2023-03-02T04:29:44.563Z,74.28
2023-03-02T04:32:11.512Z,73.95
2023-03-02T04:34:37.825Z,73.98
2023-03-02T04:37:04.169Z,74.36
2023-03-02T04:39:30.546Z,74.44
2023-03-02T04:41:56.892Z,74.30
2023-03-02T04:44:23.233Z,75.14
2023-03-02T04:46:50.062Z,75.72
2023-03-02T04:49:18.351Z,76.15
2023-03-02T04:51:47.357Z,76.24
2023-03-02T04:54:20.248Z,76.82
2023-03-02T04:56:46.676Z,77.55
2023-03-02T04:59:13.136Z,78.15
2023-03-02T05:01:39.469Z,78.62
2023-03-02T05:04:05.805Z,79.55
2023-03-02T05:06:32.461Z,80.01
2023-03-02T05:08:59.064Z,81.06
2023-03-02T05:11:26.274Z,81.63
2023-03-02T05:13:55.272Z,81.22
2023-03-02T05:16:23.795Z,81.28
2023-03-02T05:18:50.218Z,81.26
2023-03-02T05:21:18.341Z,81.29
2023-03-02T05:23:45.118Z,81.75
2023-03-02T05:26:11.472Z,82.18
2023-03-02T05:28:37.966Z,82.16
2023-03-02T05:31:04.659Z,82.15
2023-03-02T05:33:31.179Z,82.20
2023-03-02T05:35:57.886Z,83.11
2023-03-02T05:38:24.725Z,83.45
2023-03-02T05:40:51.041Z,83.71
2023-03-02T05:43:20.109Z,83.78
2023-03-02T05:45:46.586Z,83.19
2023-03-02T05:48:14.396Z,82.95
2023-03-02T05:50:41.290Z,83.10
2023-03-02T05:53:07.855Z,83.67
2023-03-02T05:55:34.160Z,84.26
2023-03-02T05:58:00.495Z,84.86
2023-03-02T06:00:26.867Z,85.13
2023-03-02T06:02:53.203Z,85.66
2023-03-02T06:05:20.881Z,85.70
2023-03-02T06:07:47.185Z,85.30
2023-03-02T06:10:14.381Z,85.23
2023-03-02T06:12:40.844Z,85.42
2023-03-02T06:15:08.967Z,86.02
2023-03-02T06:17:35.562Z,86.10
2023-03-02T06:20:01.998Z,86.46
2023-03-02T06:22:28.336Z,87.10
2023-03-02T06:24:54.626Z,87.80
2023-03-02T06:27:21.451Z,88.16
2023-03-02T06:29:47.966Z,88.94
2023-03-02T06:32:14.409Z,89.37
2023-03-02T06:34:40.915Z,89.50
2023-03-02T06:37:07.211Z,90.19
2023-03-02T06:39:33.527Z,90.45
2023-03-02T06:41:59.845Z,91.17
2023-03-02T06:44:26.133Z,92.03
2023-03-02T06:46:52.454Z,93.32
2023-03-02T06:49:18.789Z,93.46
2023-03-02T06:51:45.197Z,93.99
2023-03-02T06:54:11.497Z,94.84
2023-03-02T06:56:40.027Z,93.96
2023-03-02T06:59:07.220Z,93.35
2023-03-02T07:01:33.823Z,92.76
2023-03-02T07:04:00.364Z,92.42
2023-03-02T07:06:26.724Z,91.82
2023-03-02T07:08:53.088Z,91.68
2023-03-02T07:11:19.428Z,92.12
2023-03-02T07:13:45.742Z,91.51
2023-03-02T07:16:14.174Z,91.19
2023-03-02T07:18:40.731Z,91.12
2023-03-02T07:21:07.863Z,91.25
2023-03-02T07:23:34.774Z,91.12
2023-03-02T07:26:01.096Z,91.04
2023-03-02T07:28:27.444Z,90.69
2023-03-02T07:30:54.377Z,91.18
2023-03-02T07:33:21.387Z,90.09
2023-03-02T07:35:48.406Z,90.44
2023-03-02T07:38:14.906Z,89.44
2023-03-02T07:40:42.156Z,88.94
2023-03-02T07:43:09.028Z,88.46
2023-03-02T07:45:35.556Z,88.28
2023-03-02T07:48:01.888Z,88.27
2023-03-02T07:50:28.221Z,88.17
2023-03-02T07:52:54.563Z,87.81
2023-03-02T07:55:20.887Z,88.47
2023-03-02T07:57:47.225Z,90.00
2023-03-02T08:00:14.222Z,90.56
2023-03-02T08:02:42.058Z,90.93
2023-03-02T08:05:09.803Z,92.33
2023-03-02T08:07:36.110Z,94.73
2023-03-02T08:10:02.622Z,94.28
2023-03-02T08:12:29.121Z,93.99
2023-03-02T08:14:55.708Z,94.00
2023-03-02T08:17:22.228Z,93.72
2023-03-02T08:19:48.665Z,93.17
2023-03-02T08:22:14.992Z,93.53
2023-03-02T08:24:41.290Z,94.69
2023-03-02T08:27:09.120Z,93.91
2023-03-02T08:29:35.424Z,94.11
2023-03-02T08:32:02.041Z,94.27
2023-03-02T08:34:28.641Z,94.53
2023-03-02T08:36:54.973Z,94.27
2023-03-02T08:39:21.282Z,93.70
2023-03-02T08:41:50.665Z,93.22
2023-03-02T08:44:16.987Z,92.93
2023-03-02T08:46:43.814Z,91.94
2023-03-02T08:49:10.112Z,90.50
2023-03-02T08:51:36.433Z,90.03
2023-03-02T08:54:02.854Z,90.40
2023-03-02T08:56:32.899Z,88.72
2023-03-02T08:59:04.812Z,88.13
2023-03-02T09:01:34.218Z,87.64
2023-03-02T09:04:02.206Z,87.34
2023-03-02T09:06:30.232Z,87.09
2023-03-02T09:08:57.777Z,87.77
2023-03-02T09:11:24.563Z,89.53
2023-03-02T09:13:50.977Z,87.83
2023-03-02T09:16:17.765Z,87.61
2023-03-02T09:18:44.114Z,86.41
2023-03-02T09:21:10.504Z,86.15
2023-03-02T09:23:36.856Z,86.33
2023-03-02T09:26:04.441Z,85.43
2023-03-02T09:28:31.821Z,84.88
2023-03-02T09:31:00.888Z,86.26
2023-03-02T09:33:27.989Z,84.85
2023-03-02T09:35:54.314Z,85.21
2023-03-02T09:38:21.104Z,85.69
2023-03-02T09:40:50.104Z,84.67
2023-03-02T09:43:43.160Z,83.99
2023-03-02T09:46:26.794Z,84.20
2023-03-02T09:49:16.388Z,83.89
2023-03-02T09:51:50.309Z,83.49
2023-03-02T09:54:21.013Z,83.04
2023-03-02T09:56:50.606Z,83.64
2023-03-02T09:59:41.605Z,82.62
2023-03-02T10:02:20.087Z,82.10
2023-03-02T10:04:52.866Z,81.55
2023-03-02T10:07:30.205Z,81.71
2023-03-02T10:10:03.876Z,80.66
2023-03-02T10:12:51.138Z,81.51
2023-03-02T10:15:36.110Z,82.93
2023-03-02T10:18:17.094Z,81.63
2023-03-02T10:20:49.236Z,80.52
2023-03-02T10:23:26.077Z,80.70
2023-03-02T10:25:57.240Z,79.88
2023-03-02T10:28:30.483Z,79.95
2023-03-02T10:31:08.448Z,78.48
2023-03-02T10:33:39.020Z,77.89
2023-03-02T10:36:20.282Z,77.77
2023-03-02T10:38:47.420Z,78.59
2023-03-02T10:41:22.598Z,79.01
2023-03-02T10:43:53.217Z,79.68
2023-03-02T10:46:19.604Z,79.00
2023-03-02T10:48:53.746Z,78.58
2023-03-02T10:51:34.203Z,75.88
2023-03-02T10:54:04.649Z,75.22
2023-03-02T10:56:32.525Z,75.52
2023-03-02T10:58:59.124Z,75.79
2023-03-02T11:01:25.467Z,75.60
2023-03-02T11:03:56.916Z,74.91
2023-03-02T11:06:23.686Z,74.68
2023-03-02T11:09:06.819Z,75.37
2023-03-02T11:11:34.308Z,76.00
2023-03-02T11:14:17.560Z,76.51
2023-03-02T11:16:44.140Z,75.71
2023-03-02T11:19:21.507Z,75.43
2023-03-02T11:22:06.299Z,74.97
2023-03-02T11:24:39.079Z,74.92
2023-03-02T11:27:14.570Z,74.87
2023-03-02T11:30:02.434Z,74.59
2023-03-02T11:32:42.995Z,74.27
2023-03-02T11:35:22.438Z,73.85
2023-03-02T11:37:52.386Z,73.88
2023-03-02T11:40:42.744Z,73.97
2023-03-02T11:43:10.924Z,74.15
2023-03-02T11:45:43.696Z,73.80
2023-03-02T11:48:23.938Z,73.13
2023-03-02T11:51:02.620Z,72.60
2023-03-02T11:53:41.968Z,73.69
2023-03-02T11:56:09.252Z,74.70
2023-03-02T11:58:36.934Z,74.37
2023-03-02T12:01:04.222Z,73.59
2023-03-02T12:03:30.485Z,73.24
2023-03-02T12:06:02.021Z,73.48
2023-03-02T12:08:42.071Z,73.08
2023-03-02T12:11:31.943Z,73.44
2023-03-02T12:14:00.733Z,72.72
2023-03-02T12:16:42.635Z,72.95
2023-03-02T12:19:38.333Z,73.05
2023-03-02T12:22:07.645Z,73.09
2023-03-02T12:24:36.553Z,72.53
2023-03-02T12:27:22.438Z,72.36
2023-03-02T12:29:52.009Z,72.86
2023-03-02T12:32:18.371Z,72.62
2023-03-02T12:35:09.234Z,71.29
2023-03-02T12:37:48.196Z,72.44
2023-03-02T12:40:44.818Z,71.21
2023-03-02T12:43:19.008Z,71.25
2023-03-02T12:45:55.241Z,71.42
2023-03-02T12:48:31.717Z,71.17
2023-03-02T12:51:04.844Z,71.16
2023-03-02T12:53:32.004Z,70.40
2023-03-02T12:55:58.361Z,69.82
2023-03-02T12:58:27.211Z,70.26
2023-03-02T13:00:56.581Z,70.23
2023-03-02T13:03:23.578Z,70.01
2023-03-02T13:05:50.028Z,69.26
2023-03-02T13:08:20.317Z,69.87
2023-03-02T13:10:50.717Z,71.27
2023-03-02T13:13:21.467Z,72.04
2023-03-02T13:16:20.125Z,74.59
2023-03-02T13:18:47.749Z,73.70
2023-03-02T13:21:14.953Z,72.87
2023-03-02T13:23:51.313Z,73.39
2023-03-02T13:26:55.391Z,72.40
2023-03-02T13:29:26.656Z,72.77
2023-03-02T13:31:54.030Z,71.88
2023-03-02T13:34:26.797Z,73.49
2023-03-02T13:36:54.248Z,72.78
2023-03-02T13:39:30.826Z,72.55
2023-03-02T13:42:02.124Z,73.54
2023-03-02T13:44:32.259Z,73.67
2023-03-02T13:46:59.357Z,73.90
2023-03-02T13:49:26.707Z,73.53
2023-03-02T13:52:08.207Z,73.30
2023-03-02T13:54:37.223Z,72.95
2023-03-02T13:57:05.966Z,74.64
2023-03-02T13:59:34.502Z,74.33
2023-03-02T14:02:00.816Z,74.58
2023-03-02T14:04:27.288Z,75.14
2023-03-02T14:06:54.539Z,73.56
2023-03-02T14:09:21.590Z,73.34
2023-03-02T14:11:51.532Z,73.92
2023-03-02T14:14:21.720Z,74.81
2023-03-02T14:16:48.557Z,75.24
2023-03-02T14:19:15.910Z,75.23
2023-03-02T14:21:42.342Z,76.29
2023-03-02T14:24:09.618Z,78.65
2023-03-02T14:26:42.990Z,79.45
2023-03-02T14:29:29.933Z,78.02
2023-03-02T14:31:59.072Z,79.63
2023-03-02T14:34:26.064Z,79.17
2023-03-02T14:36:55.832Z,78.93
2023-03-02T14:39:37.063Z,81.42
2023-03-02T14:42:05.230Z,81.08
2023-03-02T14:44:32.110Z,80.23
2023-03-02T14:46:58.429Z,81.11
2023-03-02T14:49:24.806Z,80.07
2023-03-02T14:52:26.342Z,81.28
2023-03-02T14:54:56.108Z,81.72
2023-03-02T14:57:26.076Z,81.44
2023-03-02T14:59:53.393Z,81.07
2023-03-02T15:02:25.710Z,81.95
2023-03-02T15:04:54.977Z,82.00
2023-03-02T15:07:23.424Z,82.08
2023-03-02T15:09:49.769Z,82.22
2023-03-02T15:12:16.072Z,82.38
2023-03-02T15:14:42.388Z,82.69
2023-03-02T15:17:10.124Z,82.25
2023-03-02T15:19:36.417Z,82.55
2023-03-02T15:22:04.133Z,82.18
2023-03-02T15:24:33.054Z,82.52
2023-03-02T15:26:59.787Z,83.55
2023-03-02T15:29:26.092Z,83.14
2023-03-02T15:31:52.464Z,83.77
2023-03-02T15:34:18.873Z,85.22
2023-03-02T15:36:45.265Z,85.93
2023-03-02T15:39:13.824Z,86.62
2023-03-02T15:41:40.699Z,86.77
2023-03-02T15:44:07.018Z,86.77
2023-03-02T15:46:33.583Z,87.51
2023-03-02T15:48:59.930Z,87.00
2023-03-02T15:51:26.321Z,87.73
2023-03-02T15:53:52.634Z,88.45
2023-03-02T15:56:18.931Z,89.35
2023-03-02T15:58:50.312Z,90.32
2023-03-02T16:01:16.712Z,90.75
2023-03-02T16:03:44.086Z,91.34
2023-03-02T16:06:10.981Z,90.91
2023-03-02T16:08:37.391Z,91.29
2023-03-02T16:11:08.482Z,91.49
2023-03-02T16:13:35.144Z,91.41
2023-03-02T16:16:03.200Z,91.88
2023-03-02T16:18:29.821Z,91.64
2023-03-02T16:20:56.160Z,91.59
2023-03-02T16:23:22.975Z,91.75
2023-03-02T16:25:49.693Z,92.36
2023-03-02T16:28:17.628Z,92.90
2023-03-02T16:30:45.074Z,93.33
2023-03-02T16:33:16.927Z,93.26
2023-03-02T16:35:43.937Z,93.79
2023-03-02T16:38:10.921Z,94.17
2023-03-02T16:40:38.359Z,94.04
2023-03-02T16:43:05.018Z,94.23
2023-03-02T16:45:32.914Z,94.43
2023-03-02T16:47:59.365Z,94.04
2023-03-02T16:50:25.767Z,94.24
2023-03-02T16:52:52.063Z,95.06
2023-03-02T16:55:19.572Z,94.66
2023-03-02T16:57:46.002Z,95.80
2023-03-02T17:00:15.354Z,95.11
2023-03-02T17:02:42.008Z,94.95
2023-03-02T17:05:08.890Z,94.85
2023-03-02T17:07:35.366Z,95.28
2023-03-02T17:10:01.728Z,95.51
2023-03-02T17:12:28.080Z,95.72
2023-03-02T17:14:54.395Z,96.09
2023-03-02T17:17:20.771Z,96.64
2023-03-02T17:19:47.204Z,96.26
2023-03-02T17:22:13.591Z,96.54
2023-03-02T17:24:39.936Z,96.78
2023-03-02T17:27:13.198Z,96.47
2023-03-02T17:29:45.464Z,96.73
2023-03-02T17:32:11.808Z,97.19
2023-03-02T17:34:38.180Z,96.68
2023-03-02T17:37:04.472Z,96.69
2023-03-02T17:39:30.800Z,97.84
2023-03-02T17:41:57.124Z,97.42
2023-03-02T17:44:23.456Z,96.93
2023-03-02T17:46:49.838Z,97.07
2023-03-02T17:49:16.189Z,97.58
2023-03-02T17:51:42.524Z,98.20
2023-03-02T17:54:08.864Z,98.60
2023-03-02T17:56:35.201Z,99.22
2023-03-02T17:59:03.238Z,99.66
2023-03-02T18:01:30.017Z,99.38
2023-03-02T18:03:56.498Z,99.67
2023-03-02T18:06:23.399Z,99.60
2023-03-02T18:08:51.461Z,99.79
2023-03-02T18:11:20.151Z,99.62
2023-03-02T18:13:46.772Z,99.86
2023-03-02T18:16:13.779Z,99.44
2023-03-02T18:18:40.165Z,99.55
2023-03-02T18:21:06.584Z,100.00
2023-03-02T18:23:33.406Z,99.75
2023-03-02T18:25:59.713Z,99.15
2023-03-02T18:28:26.054Z,100.00
2023-03-02T18:30:52.346Z,100.00
2023-03-02T18:33:18.680Z,100.00
2023-03-02T18:35:45.068Z,100.00
2023-03-02T18:38:11.422Z,100.00
2023-03-02T18:40:37.806Z,100.00
2023-03-02T18:43:04.292Z,99.51
2023-03-02T18:45:32.222Z,100.00
2023-03-02T18:47:59.697Z,100.00
2023-03-02T18:50:26.768Z,100.00
2023-03-02T18:52:53.392Z,100.00
2023-03-02T18:55:21.755Z,100.00
2023-03-02T18:57:48.127Z,100.00
2023-03-02T19:00:22.139Z,100.00
2023-03-02T19:02:48.797Z,100.00
2023-03-02T19:05:15.478Z,100.00
2023-03-02T19:07:41.782Z,100.00
2023-03-02T19:10:08.658Z,100.00
2023-03-02T19:12:34.952Z,100.00
2023-03-02T19:15:01.315Z,100.00
2023-03-02T19:17:27.645Z,100.00
2023-03-02T19:19:53.980Z,100.00
2023-03-02T19:22:20.298Z,100.00
2023-03-02T19:24:46.591Z,100.00
2023-03-02T19:27:13.749Z,100.00
2023-03-02T19:29:41.086Z,100.00
2023-03-02T19:32:08.039Z,100.00
2023-03-02T19:34:34.705Z,100.00
2023-03-02T19:37:00.999Z,100.00
2023-03-02T19:39:27.314Z,100.00
2023-03-02T19:41:53.620Z,100.00
2023-03-02T19:44:19.915Z,100.00
2023-03-02T19:46:46.221Z,100.00
2023-03-02T19:49:12.513Z,100.00
2023-03-02T19:51:38.820Z,100.00
2023-03-02T19:54:05.167Z,100.00
2023-03-02T19:56:31.551Z,100.00
2023-03-02T19:58:57.935Z,100.00
2023-03-02T20:01:24.285Z,100.00
2023-03-02T20:03:52.011Z,100.00
2023-03-02T20:06:19.741Z,100.00
2023-03-02T20:08:46.121Z,100.00
2023-03-02T20:11:12.430Z,100.00
2023-03-02T20:13:38.749Z,100.00
2023-03-02T20:16:05.729Z,100.00
2023-03-02T20:18:32.056Z,100.00
2023-03-02T20:20:58.420Z,100.00
2023-03-02T20:23:24.762Z,100.00
2023-03-02T20:25:51.114Z,100.00
2023-03-02T20:28:22.702Z,100.00
2023-03-02T20:30:54.172Z,100.00
2023-03-02T20:33:24.956Z,100.00
2023-03-02T20:35:52.421Z,100.00
2023-03-02T20:38:29.325Z,100.00
2023-03-02T20:40:56.135Z,100.00
2023-03-02T20:43:23.041Z,100.00
2023-03-02T20:45:49.924Z,100.00
2023-03-02T20:48:16.940Z,100.00
2023-03-02T20:50:43.904Z,100.00
2023-03-02T20:53:10.556Z,100.00
2023-03-02T20:55:36.883Z,100.00
2023-03-02T20:58:03.479Z,100.00
2023-03-02T21:00:30.740Z,100.00
2023-03-02T21:02:58.117Z,100.00
2023-03-02T21:05:25.992Z,100.00
2023-03-02T21:07:52.664Z,100.00
2023-03-02T21:10:24.432Z,100.00
2023-03-02T21:12:50.802Z,100.00
2023-03-02T21:15:19.055Z,100.00
2023-03-02T21:17:45.975Z,100.00
2023-03-02T21:20:12.650Z,100.00
2023-03-02T21:22:39.047Z,100.00
2023-03-02T21:25:06.422Z,100.00
2023-03-02T21:27:32.759Z,100.00
2023-03-02T21:29:59.096Z,100.00
2023-03-02T21:32:25.433Z,100.00
2023-03-02T21:34:51.838Z,100.00
2023-03-02T21:37:18.140Z,100.00
2023-03-02T21:39:44.468Z,100.00
2023-03-02T21:42:10.797Z,100.00
2023-03-02T21:44:37.189Z,100.00
2023-03-02T21:47:03.612Z,100.00
2023-03-02T21:49:29.991Z,100.00
2023-03-02T21:51:56.309Z,100.00
2023-03-02T21:54:22.616Z,100.00
2023-03-02T21:56:49.074Z,100.00
2023-03-02T21:59:15.495Z,100.00
2023-03-02T22:01:42.000Z,100.00
2023-03-02T22:04:08.361Z,100.00
2023-03-02T22:06:35.163Z,100.00
2023-03-02T22:09:02.269Z,100.00
2023-03-02T22:11:31.146Z,100.00
2023-03-02T22:14:00.757Z,100.00
2023-03-02T22:16:38.752Z,100.00
2023-03-02T22:19:22.378Z,100.00
2023-03-02T22:21:49.479Z,100.00
2023-03-02T22:24:28.982Z,100.00
2023-03-02T22:26:59.610Z,100.00
2023-03-02T22:29:32.394Z,100.00
2023-03-02T22:32:12.831Z,100.00
2023-03-02T22:34:40.908Z,100.00
2023-03-02T22:37:16.141Z,99.16
2023-03-02T22:39:42.579Z,99.80
2023-03-02T22:42:20.689Z,99.72
2023-03-02T22:45:09.637Z,98.74
2023-03-02T22:47:35.962Z,98.06
2023-03-02T22:50:21.914Z,98.19
2023-03-02T22:52:48.296Z,98.53
2023-03-02T22:55:43.647Z,98.14
2023-03-02T22:58:30.528Z,98.59
2023-03-02T23:00:58.732Z,99.05
2023-03-02T23:03:37.040Z,99.31
2023-03-02T23:06:22.151Z,99.73
2023-03-02T23:08:49.218Z,100.00
2023-03-02T23:11:18.770Z,99.51
2023-03-02T23:13:45.273Z,98.86
2023-03-02T23:16:23.191Z,97.70
2023-03-02T23:18:51.016Z,98.65
2023-03-02T23:21:28.404Z,98.03
2023-03-02T23:23:55.021Z,97.45
2023-03-02T23:26:21.318Z,98.12
2023-03-02T23:28:49.779Z,98.38
2023-03-02T23:31:17.328Z,98.46
2023-03-02T23:33:44.127Z,98.22
2023-03-02T23:36:11.024Z,97.77
2023-03-02T23:38:37.377Z,96.62
2023-03-02T23:41:03.805Z,97.33
2023-03-02T23:43:30.124Z,97.90
2023-03-02T23:45:56.502Z,97.69
2023-03-02T23:48:22.831Z,96.46
2023-03-02T23:50:49.154Z,96.68
2023-03-02T23:53:15.476Z,97.42
2023-03-02T23:55:47.611Z,97.96
2023-03-02T23:58:13.941Z,96.89
